Time,TemperatureF,DewpointF,PressureIn,WindDirection,WindDirectionDegrees,WindSpeedMPH,WindSpeedGustMPH,Humidity,HourlyPrecipIn,Conditions,Clouds,dailyrainin,SolarRadiationWatts/m^2,SoftwareType,DateUTC
2013-05-23 00:09:00,49.5,41.9,29.98,WNW,291,0.0,4.0,75,0.00,CLR,,0.00,0.0,WeatherDisplay:10.37,2013-05-23 07:09:00,
2013-05-23 00:19:00,49.4,42.1,29.98,West,281,0.0,0.0,76,0.00,CLR,,0.00,0.0,WeatherDisplay:10.37,2013-05-23 07:19:00,
2013-05-23 00:29:00,49.3,42.1,29.98,West,280,0.0,0.0,76,0.00,CLR,,0.00,0.0,WeatherDisplay:10.37,2013-05-23 07:29:00,
2013-05-23 00:39:00,49.1,41.5,29.98,West,281,0.0,0.0,75,0.00,CLR,,0.00,0.0,WeatherDisplay:10.37,2013-05-23 07:39:00,
2013-05-23 00:49:00,49.0,41.8,29.98,West,280,0.0,0.0,76,0.00,CLR,,0.00,0.0,WeatherDisplay:10.37,2013-05-23 07:49:00,
2013-05-23 00:59:00,48.8,41.6,29.98,West,280,0.0,0.0,76,0.00,CLR,,0.00,0.0,WeatherDisplay:10.37,2013-05-23 07:59:00,
2013-05-23 01:09:00,48.6,41.4,29.98,West,281,0.0,0.0,76,0.00,CLR,,0.00,0.0,WeatherDisplay:10.37,2013-05-23 08:09:00,
2013-05-23 01:19:00,48.3,41.1,29.98,West,281,0.0,0.0,76,0.00,CLR,,0.00,0.0,WeatherDisplay:10.37,2013-05-23 08:19:00,
2013-05-23 01:29:00,48.1,41.2,29.98,West,281,0.0,0.0,77,0.00,CLR,,0.00,0.0,WeatherDisplay:10.37,2013-05-23 08:29:00,
2013-05-23 01:39:00,48.1,41.2,29.98,West,281,0.0,0.0,77,0.00,CLR,,0.00,0.0,WeatherDisplay:10.37,2013-05-23 08:39:00,
2013-05-23 01:49:00,48.0,41.5,29.98,WNW,288,0.0,0.0,78,0.00,CLR,,0.00,0.0,WeatherDisplay:10.37,2013-05-23 08:49:00,
2013-05-23 01:59:00,47.7,41.2,29.98,WNW,302,0.0,0.0,78,0.00,CLR,,0.00,0.0,WeatherDisplay:10.37,2013-05-23 08:59:00,
2013-05-23 02:09:00,47.3,40.8,29.98,WNW,302,0.0,2.0,78,0.00,CLR,,0.00,0.0,WeatherDisplay:10.37,2013-05-23 09:09:00,
2013-05-23 02:19:00,46.9,40.7,29.97,WNW,302,0.0,1.0,79,0.00,CLR,,0.00,0.0,WeatherDisplay:10.37,2013-05-23 09:19:00,
2013-05-23 02:29:00,46.7,40.5,29.97,WNW,302,0.0,0.0,79,0.00,CLR,,0.00,0.0,WeatherDisplay:10.37,2013-05-23 09:29:00,
2013-05-23 02:39:00,46.4,40.2,29.97,WNW,302,0.0,0.0,79,0.00,CLR,,0.00,0.0,WeatherDisplay:10.37,2013-05-23 09:39:00,
2013-05-23 02:49:00,46.2,40.4,29.97,WNW,302,0.0,0.0,80,0.00,CLR,,0.00,0.0,WeatherDisplay:10.37,2013-05-23 09:49:00,
2013-05-23 02:59:00,46.0,40.2,29.97,WNW,302,0.0,0.0,80,0.00,CLR,,0.00,0.0,WeatherDisplay:10.37,2013-05-23 09:59:00,
2013-05-23 03:09:00,46.2,40.7,29.97,WNW,302,0.0,0.0,81,0.00,CLR,,0.00,0.0,WeatherDisplay:10.37,2013-05-23 10:09:00,
2013-05-23 03:19:00,46.3,41.1,29.97,WNW,302,0.0,0.0,82,0.00,CLR,,0.00,0.0,WeatherDisplay:10.37,2013-05-23 10:19:00,
2013-05-23 03:29:00,46.4,41.2,29.97,WNW,302,0.0,0.0,82,0.00,CLR,,0.00,0.0,WeatherDisplay:10.37,2013-05-23 10:29:00,
2013-05-23 03:39:00,46.7,41.5,29.98,WNW,303,0.0,4.0,82,0.00,CLR,,0.00,0.0,WeatherDisplay:10.37,2013-05-23 10:39:00,
2013-05-23 03:49:00,46.8,41.6,29.98,NW,304,0.0,2.0,82,0.00,CLR,,0.00,0.0,WeatherDisplay:10.37,2013-05-23 10:49:00,
2013-05-23 03:59:00,47.0,41.8,29.98,NW,304,0.0,3.0,82,0.00,CLR,,0.00,0.0,WeatherDisplay:10.37,2013-05-23 10:59:00,
2013-05-23 04:09:00,47.1,41.6,29.98,NW,304,0.0,0.0,81,0.00,CLR,,0.00,0.0,WeatherDisplay:10.37,2013-05-23 11:09:00,
2013-05-23 04:19:00,47.1,41.6,29.98,NW,304,0.0,0.0,81,0.00,CLR,,0.00,0.0,WeatherDisplay:10.37,2013-05-23 11:19:00,
2013-05-23 04:30:00,46.9,41.1,29.98,NW,304,0.0,0.0,80,0.00,CLR,,0.00,0.0,WeatherDisplay:10.37,2013-05-23 11:30:00,
2013-05-23 04:39:00,47.0,41.1,29.98,NW,317,1.0,7.0,80,0.00,CLR,,0.00,0.0,WeatherDisplay:10.37,2013-05-23 11:39:00,
2013-05-23 04:49:00,47.2,41.4,29.99,NW,323,0.0,0.0,80,0.00,CLR,,0.00,0.0,WeatherDisplay:10.37,2013-05-23 11:49:00,
2013-05-23 04:59:00,47.2,41.0,29.99,NW,323,0.0,0.0,79,0.00,CLR,,0.00,0.0,WeatherDisplay:10.37,2013-05-23 11:59:00,
2013-05-23 05:09:00,47.1,40.9,29.98,NW,321,0.0,2.0,79,0.00,CLR,,0.00,0.0,WeatherDisplay:10.37,2013-05-23 12:09:00,
2013-05-23 05:19:00,47.3,41.1,29.99,NW,310,0.0,6.0,79,0.00,CLR,,0.00,0.0,WeatherDisplay:10.37,2013-05-23 12:19:00,
2013-05-23 05:29:00,47.5,41.0,29.99,NW,317,0.0,0.0,78,0.00,OVC,,0.00,0.0,WeatherDisplay:10.37,2013-05-23 12:29:00,
2013-05-23 05:39:00,47.4,40.9,29.99,NW,317,0.0,0.0,78,0.00,OVC,,0.00,0.0,WeatherDisplay:10.37,2013-05-23 12:39:00,
2013-05-23 05:49:00,47.2,40.7,29.99,NW,317,0.0,0.0,78,0.00,OVC,,0.00,0.0,WeatherDisplay:10.37,2013-05-23 12:49:00,
2013-05-23 05:59:00,47.2,40.7,29.99,NW,317,0.0,0.0,78,0.00,BKN,,0.00,5.0,WeatherDisplay:10.37,2013-05-23 12:59:00,
2013-05-23 06:09:00,47.1,40.6,29.99,NW,317,0.0,0.0,78,0.00,BKN,,0.00,12.0,WeatherDisplay:10.37,2013-05-23 13:09:00,
2013-05-23 06:19:00,47.0,40.5,30.00,NW,317,0.0,0.0,78,0.00,BKN,,0.00,19.0,WeatherDisplay:10.37,2013-05-23 13:19:00,
2013-05-23 06:29:00,47.0,40.5,30.00,NW,317,0.0,0.0,78,0.00,BKN,,0.00,26.0,WeatherDisplay:10.37,2013-05-23 13:29:00,
2013-05-23 06:39:00,47.3,40.8,30.00,NW,317,0.0,0.0,78,0.00,BKN,,0.00,37.0,WeatherDisplay:10.37,2013-05-23 13:39:00,
2013-05-23 06:49:00,47.7,41.2,30.00,NW,310,0.0,1.0,78,0.00,BKN,,0.00,62.0,WeatherDisplay:10.37,2013-05-23 13:49:00,
2013-05-23 06:59:00,48.3,41.4,30.00,WNW,292,0.0,0.0,77,0.00,SCT,,0.00,97.0,WeatherDisplay:10.37,2013-05-23 13:59:00,
2013-05-23 07:09:00,48.9,41.6,30.00,WNW,295,2.0,4.0,76,0.00,SCT,,0.00,135.0,WeatherDisplay:10.37,2013-05-23 14:09:00,
2013-05-23 07:19:00,49.4,41.8,30.00,WNW,295,0.0,5.0,75,0.00,FEW,,0.00,169.0,WeatherDisplay:10.37,2013-05-23 14:19:00,
2013-05-23 07:29:00,50.1,41.7,30.00,NW,321,1.0,5.0,73,0.00,FEW,,0.00,214.0,WeatherDisplay:10.37,2013-05-23 14:29:00,
2013-05-23 07:39:00,50.3,41.3,30.00,NW,308,5.0,12.0,71,0.00,CLR,,0.00,248.0,WeatherDisplay:10.37,2013-05-23 14:39:00,
2013-05-23 07:49:00,50.6,41.2,30.00,NW,306,8.0,13.0,70,0.00,FEW,,0.00,223.0,WeatherDisplay:10.37,2013-05-23 14:49:00,
2013-05-23 07:59:00,50.6,41.2,30.00,NW,309,6.0,16.0,70,0.00,CLR,,0.00,313.0,WeatherDisplay:10.37,2013-05-23 14:59:00,
2013-05-23 08:09:00,50.9,41.5,30.00,NW,315,6.0,14.0,70,0.00,CLR,,0.00,348.0,WeatherDisplay:10.37,2013-05-23 15:09:00,
2013-05-23 08:19:00,51.3,41.8,30.01,NW,314,9.0,16.0,70,0.00,CLR,,0.00,376.0,WeatherDisplay:10.37,2013-05-23 15:19:00,
2013-05-23 08:29:00,51.6,41.8,30.01,NW,304,12.0,20.0,69,0.00,CLR,,0.00,404.0,WeatherDisplay:10.37,2013-05-23 15:29:00,
2013-05-23 08:39:00,51.8,41.6,30.01,NW,305,10.0,20.0,68,0.00,CLR,,0.00,443.0,WeatherDisplay:10.37,2013-05-23 15:39:00,
2013-05-23 08:49:00,52.3,41.7,30.01,NW,320,7.0,17.0,67,0.00,CLR,,0.00,476.0,WeatherDisplay:10.37,2013-05-23 15:49:00,
2013-05-23 08:59:00,52.8,41.7,30.01,NW,309,1.0,15.0,66,0.00,CLR,,0.00,497.0,WeatherDisplay:10.37,2013-05-23 15:59:00,
2013-05-23 09:09:00,53.5,42.0,30.01,NW,319,3.0,15.0,65,0.00,CLR,,0.00,540.0,WeatherDisplay:10.37,2013-05-23 16:09:00,
2013-05-23 09:19:00,53.7,41.4,30.01,NW,308,7.0,14.0,63,0.00,CLR,,0.00,577.0,WeatherDisplay:10.37,2013-05-23 16:19:00,
2013-05-23 09:29:00,54.3,41.6,30.01,NNW,328,5.0,15.0,62,0.00,CLR,,0.00,596.0,WeatherDisplay:10.37,2013-05-23 16:29:00,
2013-05-23 09:39:00,55.0,41.8,30.01,NW,321,1.0,9.0,61,0.00,CLR,,0.00,628.0,WeatherDisplay:10.37,2013-05-23 16:39:00,
2013-05-23 09:49:00,55.5,41.0,30.01,NW,304,7.0,13.0,58,0.00,CLR,,0.00,657.0,WeatherDisplay:10.37,2013-05-23 16:49:00,
2013-05-23 09:59:00,55.7,41.2,30.00,NW,305,5.0,12.0,58,0.00,CLR,,0.00,687.0,WeatherDisplay:10.37,2013-05-23 16:59:00,
2013-05-23 10:09:00,56.6,41.6,30.00,NW,304,0.0,7.0,57,0.00,CLR,,0.00,705.0,WeatherDisplay:10.37,2013-05-23 17:09:00,
2013-05-23 10:19:00,57.4,41.3,30.00,NW,318,2.0,7.0,55,0.00,CLR,,0.00,731.0,WeatherDisplay:10.37,2013-05-23 17:19:00,
2013-05-23 10:29:00,57.6,41.5,30.00,NNW,328,1.0,12.0,55,0.00,CLR,,0.00,754.0,WeatherDisplay:10.37,2013-05-23 17:29:00,
2013-05-23 10:39:00,57.7,42.1,30.01,NW,319,0.0,12.0,56,0.00,CLR,,0.00,775.0,WeatherDisplay:10.37,2013-05-23 17:39:00,
2013-05-23 10:49:00,57.5,41.9,30.01,NW,315,0.0,15.0,56,0.00,CLR,,0.00,802.0,WeatherDisplay:10.37,2013-05-23 17:49:00,
2013-05-23 10:59:00,58.0,41.4,30.01,NW,304,2.0,12.0,54,0.00,CLR,,0.00,821.0,WeatherDisplay:10.37,2013-05-23 17:59:00,
2013-05-23 11:09:00,58.3,41.2,30.01,NW,314,6.0,13.0,53,0.00,CLR,,0.00,838.0,WeatherDisplay:10.37,2013-05-23 18:09:00,
2013-05-23 11:19:00,59.3,42.7,30.01,NW,320,3.0,16.0,54,0.00,FEW,,0.00,847.0,WeatherDisplay:10.37,2013-05-23 18:19:00,
2013-05-23 11:29:00,60.0,41.8,30.01,NW,312,1.0,14.0,51,0.00,FEW,,0.00,874.0,WeatherDisplay:10.37,2013-05-23 18:29:00,
2013-05-23 11:39:00,59.9,41.2,30.01,NW,312,8.0,14.0,50,0.00,FEW,,0.00,884.0,WeatherDisplay:10.37,2013-05-23 18:39:00,
2013-05-23 11:49:00,60.6,42.3,30.01,NW,312,0.0,9.0,51,0.00,FEW,,0.00,896.0,WeatherDisplay:10.37,2013-05-23 18:49:00,
2013-05-23 11:59:00,62.4,41.9,30.01,NNW,333,2.0,9.0,47,0.00,FEW,,0.00,916.0,WeatherDisplay:10.37,2013-05-23 18:59:00,
2013-05-23 12:09:00,62.8,42.8,30.01,NW,304,1.0,7.0,48,0.00,FEW,,0.00,926.0,WeatherDisplay:10.37,2013-05-23 19:09:00,
2013-05-23 12:19:00,63.8,42.0,30.01,NW,310,0.0,8.0,45,0.00,FEW,,0.00,932.0,WeatherDisplay:10.37,2013-05-23 19:19:00,
2013-05-23 12:29:00,63.7,42.5,30.01,NNW,348,2.0,7.0,46,0.00,FEW,,0.00,940.0,WeatherDisplay:10.37,2013-05-23 19:29:00,
2013-05-23 12:39:00,63.6,42.4,30.00,NNW,343,0.0,8.0,46,0.00,FEW,,0.00,944.0,WeatherDisplay:10.37,2013-05-23 19:39:00,
2013-05-23 12:49:00,65.2,43.9,30.00,WSW,257,0.0,5.0,46,0.00,FEW,,0.00,958.0,WeatherDisplay:10.37,2013-05-23 19:49:00,
2013-05-23 12:59:00,66.4,45.5,30.00,WSW,254,1.0,10.0,47,0.00,FEW,,0.00,953.0,WeatherDisplay:10.37,2013-05-23 19:59:00,
2013-05-23 13:09:00,66.3,46.0,30.00,WSW,245,1.0,12.0,48,0.00,FEW,,0.00,954.0,WeatherDisplay:10.37,2013-05-23 20:09:00,
2013-05-23 13:19:00,66.3,46.0,29.99,SW,231,2.0,14.0,48,0.00,FEW,,0.00,949.0,WeatherDisplay:10.37,2013-05-23 20:19:00,
2013-05-23 13:29:00,66.2,45.4,29.99,SW,225,1.0,11.0,47,0.00,FEW,,0.00,951.0,WeatherDisplay:10.37,2013-05-23 20:29:00,
2013-05-23 13:39:00,66.6,46.3,29.99,SW,221,1.0,12.0,48,0.00,FEW,,0.00,935.0,WeatherDisplay:10.37,2013-05-23 20:39:00,
2013-05-23 13:49:00,68.1,46.5,29.99,SSW,213,0.0,10.0,46,0.00,FEW,,0.00,935.0,WeatherDisplay:10.37,2013-05-23 20:49:00,
2013-05-23 13:59:00,66.7,46.4,29.99,SSW,208,10.0,21.0,48,0.00,FEW,,0.00,921.0,WeatherDisplay:10.37,2013-05-23 20:59:00,
2013-05-23 14:09:00,66.3,46.6,30.00,SW,221,2.0,12.0,49,0.00,FEW,,0.00,919.0,WeatherDisplay:10.37,2013-05-23 21:09:00,
2013-05-23 14:19:00,67.1,47.3,29.99,SSW,213,2.0,9.0,49,0.00,FEW,,0.00,902.0,WeatherDisplay:10.37,2013-05-23 21:19:00,
2013-05-23 14:29:00,66.3,47.1,30.00,South,186,3.0,14.0,50,0.00,FEW,,0.00,884.0,WeatherDisplay:10.37,2013-05-23 21:29:00,
2013-05-23 14:39:00,66.6,47.3,30.00,South,184,3.0,10.0,50,0.00,FEW,,0.00,865.0,WeatherDisplay:10.37,2013-05-23 21:39:00,
2013-05-23 14:49:00,66.3,46.6,30.00,South,187,7.0,13.0,49,0.00,CLR,,0.00,856.0,WeatherDisplay:10.37,2013-05-23 21:49:00,
2013-05-23 14:59:00,65.9,46.7,30.00,SSW,204,5.0,10.0,50,0.00,CLR,,0.00,830.0,WeatherDisplay:10.37,2013-05-23 21:59:00,
2013-05-23 15:09:00,66.0,47.3,30.00,SSW,192,7.0,12.0,51,0.00,CLR,,0.00,814.0,WeatherDisplay:10.37,2013-05-23 22:09:00,
2013-05-23 15:19:00,66.0,47.4,30.00,SSW,203,6.0,12.0,51,0.00,CLR,,0.00,795.0,WeatherDisplay:10.37,2013-05-23 22:19:00,
2013-05-23 15:29:00,65.8,47.7,30.00,SSW,206,0.0,9.0,52,0.00,CLR,,0.00,775.0,WeatherDisplay:10.37,2013-05-23 22:29:00,
2013-05-23 15:39:00,65.6,47.5,30.00,South,177,1.0,12.0,52,0.00,FEW,,0.00,659.0,WeatherDisplay:10.37,2013-05-23 22:39:00,
2013-05-23 15:49:00,65.3,47.2,30.00,SSE,167,2.0,7.0,52,0.00,SCT,,0.00,728.0,WeatherDisplay:10.37,2013-05-23 22:49:00,
2013-05-23 15:59:00,65.6,46.5,30.00,South,178,0.0,6.0,50,0.00,BKN,,0.00,84.0,WeatherDisplay:10.37,2013-05-23 22:59:00,
2013-05-23 16:09:00,65.0,45.9,30.00,SSE,155,0.0,9.0,50,0.00,BKN,,0.00,93.0,WeatherDisplay:10.37,2013-05-23 23:09:00,
2013-05-23 16:19:00,64.7,46.1,29.99,ESE,118,6.0,9.0,51,0.00,BKN,,0.00,121.0,WeatherDisplay:10.37,2013-05-23 23:19:00,
2013-05-23 16:29:00,64.6,45.5,29.99,SE,125,0.0,7.0,50,0.00,BKN,,0.00,72.0,WeatherDisplay:10.37,2013-05-23 23:29:00,
2013-05-23 16:39:00,64.7,45.6,29.99,SE,137,0.0,7.0,50,0.00,OVC,,0.00,69.0,WeatherDisplay:10.37,2013-05-23 23:39:00,
2013-05-23 16:49:00,64.7,45.7,29.99,SE,131,3.0,6.0,50,0.00,OVC,,0.00,69.0,WeatherDisplay:10.37,2013-05-23 23:49:00,
2013-05-23 16:59:00,64.7,44.0,29.99,SE,130,0.0,8.0,47,0.00,BKN,,0.00,67.0,WeatherDisplay:10.37,2013-05-23 23:59:00,
2013-05-23 17:09:00,64.7,45.1,29.99,East,94,2.0,6.0,49,0.00,OVC,,0.00,65.0,WeatherDisplay:10.37,2013-05-24 00:09:00,
2013-05-23 17:19:00,64.3,44.7,29.99,ENE,77,1.0,10.0,49,0.00,BKN,,0.00,65.0,WeatherDisplay:10.37,2013-05-24 00:19:00,
2013-05-23 17:29:00,64.0,43.9,29.99,East,93,5.0,8.0,48,0.00,BKN,,0.00,62.0,WeatherDisplay:10.37,2013-05-24 00:29:00,
2013-05-23 17:39:00,63.4,43.3,29.99,ESE,120,3.0,8.0,48,0.00,BKN,,0.00,58.0,WeatherDisplay:10.37,2013-05-24 00:39:00,
2013-05-23 17:49:00,63.0,44.1,29.99,ESE,119,5.0,7.0,50,0.00,BKN,,0.00,58.0,WeatherDisplay:10.37,2013-05-24 00:49:00,
2013-05-23 17:59:00,62.4,43.5,29.99,ESE,116,0.0,8.0,50,0.00,BKN,,0.00,54.0,WeatherDisplay:10.37,2013-05-24 00:59:00,
2013-05-23 18:09:00,62.3,43.9,29.99,ESE,119,3.0,8.0,51,0.00,BKN,,0.00,53.0,WeatherDisplay:10.37,2013-05-24 01:09:00,
2013-05-23 18:19:00,61.8,43.5,29.99,ESE,105,0.0,7.0,51,0.00,BKN,,0.00,49.0,WeatherDisplay:10.37,2013-05-24 01:19:00,
2013-05-23 18:29:00,61.6,42.2,29.99,ESE,113,0.0,7.0,49,0.00,BKN,,0.00,47.0,WeatherDisplay:10.37,2013-05-24 01:29:00,
2013-05-23 18:39:00,61.8,43.0,29.99,ESE,107,0.0,7.0,50,0.00,BKN,,0.00,47.0,WeatherDisplay:10.37,2013-05-24 01:39:00,
2013-05-23 18:49:00,61.6,43.3,29.99,SE,131,0.0,6.0,51,0.00,BKN,,0.00,51.0,WeatherDisplay:10.37,2013-05-24 01:49:00,
2013-05-23 18:59:00,61.4,43.6,29.99,SE,126,0.0,6.0,52,0.00,BKN,,0.00,47.0,WeatherDisplay:10.37,2013-05-24 01:59:00,
2013-05-23 19:09:00,61.1,43.3,30.00,SE,145,0.0,1.0,52,0.00,BKN,,0.00,44.0,WeatherDisplay:10.37,2013-05-24 02:09:00,
2013-05-23 19:19:00,60.9,46.5,30.00,SSE,156,1.0,4.0,59,0.00,BKN,,0.00,35.0,WeatherDisplay:10.37,2013-05-24 02:19:00,
2013-05-23 19:29:00,60.4,46.0,30.00,South,178,0.0,2.0,59,0.00,BKN,,0.00,30.0,WeatherDisplay:10.37,2013-05-24 02:29:00,
2013-05-23 19:39:00,60.2,43.0,30.00,WNW,303,2.0,10.0,53,0.00,BKN,,0.00,25.0,WeatherDisplay:10.37,2013-05-24 02:39:00,
2013-05-23 19:49:00,60.0,42.3,30.00,NW,316,3.0,12.0,52,0.00,BKN,,0.00,19.0,WeatherDisplay:10.37,2013-05-24 02:49:00,
2013-05-23 19:59:00,59.6,42.4,30.01,NW,309,2.0,8.0,53,0.00,BKN,,0.00,14.0,WeatherDisplay:10.37,2013-05-24 02:59:00,
2013-05-23 20:09:00,58.8,41.7,30.01,NW,308,0.0,8.0,53,0.00,SCT,,0.00,7.0,WeatherDisplay:10.37,2013-05-24 03:09:00,
2013-05-23 20:19:00,58.4,41.8,30.01,NW,314,0.0,4.0,54,0.00,OVC,,0.00,0.0,WeatherDisplay:10.37,2013-05-24 03:19:00,
2013-05-23 20:29:00,58.0,41.4,30.01,NW,324,0.0,6.0,54,0.00,OVC,,0.00,0.0,WeatherDisplay:10.37,2013-05-24 03:29:00,
2013-05-23 20:39:00,57.3,40.3,30.01,NW,307,3.0,9.0,53,0.00,OVC,,0.00,0.0,WeatherDisplay:10.37,2013-05-24 03:39:00,
2013-05-23 20:49:00,57.0,40.5,30.01,NW,308,1.0,8.0,54,0.00,CLR,,0.00,0.0,WeatherDisplay:10.37,2013-05-24 03:49:00,
2013-05-23 20:59:00,56.7,39.7,30.01,NW,313,1.0,6.0,53,0.00,CLR,,0.00,0.0,WeatherDisplay:10.37,2013-05-24 03:59:00,
2013-05-23 21:09:00,56.5,39.6,30.02,WNW,302,0.0,5.0,53,0.00,CLR,,0.00,0.0,WeatherDisplay:10.37,2013-05-24 04:09:00,
2013-05-23 21:19:00,56.2,39.3,30.02,WNW,290,0.0,0.0,53,0.00,CLR,,0.00,0.0,WeatherDisplay:10.37,2013-05-24 04:19:00,
2013-05-23 21:29:00,56.1,44.1,30.03,South,184,0.0,1.0,64,0.00,CLR,,0.00,0.0,WeatherDisplay:10.37,2013-05-24 04:29:00,
2013-05-23 21:39:00,55.6,46.0,30.03,SE,142,0.0,4.0,70,0.00,CLR,,0.00,0.0,WeatherDisplay:10.37,2013-05-24 04:39:00,
2013-05-23 21:49:00,54.9,46.4,30.03,SE,134,1.0,6.0,73,0.00,CLR,,0.00,0.0,WeatherDisplay:10.37,2013-05-24 04:49:00,
2013-05-23 21:59:00,54.1,46.3,30.03,SE,138,2.0,5.0,75,0.00,CLR,,0.00,0.0,WeatherDisplay:10.37,2013-05-24 04:59:00,
2013-05-23 22:09:00,53.4,46.0,30.03,SE,127,0.0,3.0,76,0.00,CLR,,0.00,0.0,WeatherDisplay:10.37,2013-05-24 05:09:00,
2013-05-23 22:19:00,53.0,46.0,30.03,SE,129,0.0,0.0,77,0.00,CLR,,0.00,0.0,WeatherDisplay:10.37,2013-05-24 05:19:00,
2013-05-23 22:29:00,52.7,46.1,30.04,SE,131,0.0,0.0,78,0.00,CLR,,0.00,0.0,WeatherDisplay:10.37,2013-05-24 05:29:00,
2013-05-23 22:39:00,52.5,45.8,30.04,SE,131,0.0,0.0,78,0.00,CLR,,0.00,0.0,WeatherDisplay:10.37,2013-05-24 05:39:00,
2013-05-23 22:49:00,52.2,45.9,30.04,SE,138,0.0,0.0,79,0.00,CLR,,0.00,0.0,WeatherDisplay:10.37,2013-05-24 05:49:00,
2013-05-23 22:59:00,52.0,45.7,30.04,SE,140,0.0,0.0,79,0.00,CLR,,0.00,0.0,WeatherDisplay:10.37,2013-05-24 05:59:00,
2013-05-23 23:09:00,51.7,45.7,30.04,SE,140,0.0,0.0,80,0.00,CLR,,0.00,0.0,WeatherDisplay:10.37,2013-05-24 06:09:00,
2013-05-23 23:19:00,51.4,45.8,30.03,SE,140,0.0,0.0,81,0.00,CLR,,0.00,0.0,WeatherDisplay:10.37,2013-05-24 06:19:00,
2013-05-23 23:29:00,51.1,45.4,30.03,SE,140,0.0,0.0,81,0.00,CLR,,0.00,0.0,WeatherDisplay:10.37,2013-05-24 06:29:00,
2013-05-23 23:39:00,50.5,44.6,30.03,SE,139,0.0,0.0,80,0.00,CLR,,0.00,0.0,WeatherDisplay:10.37,2013-05-24 06:39:00,
2013-05-23 23:49:00,49.7,43.4,30.03,North,353,0.0,2.0,79,0.00,CLR,,0.00,0.0,WeatherDisplay:10.37,2013-05-24 06:49:00,
2013-05-23 23:59:00,48.9,42.4,30.03,NW,311,1.0,5.0,78,0.00,CLR,,0.00,0.0,WeatherDisplay:10.37,2013-05-24 06:59:00,